createdAt,value
2023-08-04T00:00:23.890Z,72.10
2023-08-04T00:02:50.445Z,72.00
2023-08-04T00:05:21.513Z,72.20
2023-08-04T00:07:48.044Z,72.20
2023-08-04T00:10:15.406Z,72.10
2023-08-04T00:12:41.954Z,72.10
2023-08-04T00:15:08.465Z,72.20
2023-08-04T00:17:34.993Z,72.30
2023-08-04T00:20:03.403Z,72.30
2023-08-04T00:22:29.925Z,72.10
2023-08-04T00:24:56.440Z,72.10
2023-08-04T00:27:22.932Z,72.10
2023-08-04T00:29:51.428Z,72.20
2023-08-04T00:32:17.965Z,72.30
2023-08-04T00:34:45.421Z,72.20
2023-08-04T00:37:11.944Z,72.20
2023-08-04T00:39:38.472Z,72.30
2023-08-04T00:42:04.980Z,72.30
2023-08-04T00:44:31.516Z,72.20
2023-08-04T00:46:58.037Z,72.10
2023-08-04T00:49:24.557Z,72.10
2023-08-04T00:51:51.080Z,72.10
2023-08-04T00:54:17.598Z,72.50
2023-08-04T00:56:45.488Z,71.90
2023-08-04T00:59:12.117Z,72.00
2023-08-04T01:01:38.668Z,72.10
2023-08-04T01:04:09.447Z,71.90
2023-08-04T01:06:35.975Z,72.00
2023-08-04T01:09:02.514Z,72.00
2023-08-04T01:11:39.595Z,72.00
2023-08-04T01:16:58.874Z,72.00
2023-08-04T01:19:25.448Z,72.00
2023-08-04T01:21:52.040Z,72.00
2023-08-04T01:24:27.680Z,71.90
2023-08-04T01:26:54.285Z,72.10
2023-08-04T01:29:20.795Z,72.10
2023-08-04T01:31:47.509Z,72.00
2023-08-04T01:34:14.253Z,71.90
2023-08-04T01:36:40.850Z,72.00
2023-08-04T01:39:07.409Z,71.90
2023-08-04T01:41:33.942Z,71.80
2023-08-04T01:44:00.465Z,71.90
2023-08-04T01:49:17.019Z,72.10
2023-08-04T01:51:43.525Z,71.80
2023-08-04T01:54:15.550Z,71.60
2023-08-04T01:56:42.062Z,71.60
2023-08-04T01:59:08.570Z,71.70
2023-08-04T02:01:39.554Z,71.80
2023-08-04T02:04:09.606Z,71.80
2023-08-04T02:09:27.303Z,71.70
2023-08-04T02:11:57.520Z,72.00
2023-08-04T02:14:27.560Z,72.10
2023-08-04T02:16:54.083Z,71.80
2023-08-04T02:19:20.614Z,71.80
2023-08-04T02:21:47.385Z,71.90
2023-08-04T02:24:15.468Z,72.00
2023-08-04T02:26:41.990Z,71.70
2023-08-04T02:29:08.515Z,71.70
2023-08-04T02:31:35.074Z,71.60
2023-08-04T02:34:01.682Z,71.50
2023-08-04T02:36:28.227Z,71.70
2023-08-04T02:38:54.748Z,71.70
2023-08-04T02:41:21.282Z,71.70
2023-08-04T02:43:47.789Z,71.80
2023-08-04T02:46:14.346Z,71.80
2023-08-04T02:48:51.568Z,71.60
2023-08-04T02:51:18.093Z,71.70
2023-08-04T02:53:57.577Z,72.50
2023-08-04T02:56:24.096Z,71.40
2023-08-04T02:58:50.613Z,71.40
2023-08-04T03:01:21.610Z,71.30
2023-08-04T03:03:48.150Z,71.40
2023-08-04T03:06:14.673Z,71.20
2023-08-04T03:08:45.715Z,71.30
2023-08-04T03:11:12.252Z,71.30
2023-08-04T03:13:38.790Z,71.40
2023-08-04T03:16:09.564Z,71.30
2023-08-04T03:18:39.575Z,71.60
2023-08-04T03:21:09.566Z,71.70
2023-08-04T03:23:36.094Z,71.70
2023-08-04T03:26:02.628Z,71.80
2023-08-04T03:28:29.142Z,72.10
2023-08-04T03:30:55.642Z,71.80
2023-08-04T03:33:22.174Z,71.70
2023-08-04T03:35:48.925Z,71.80
2023-08-04T03:38:15.532Z,72.00
2023-08-04T03:40:42.062Z,72.00
2023-08-04T03:43:09.595Z,72.10
2023-08-04T03:45:36.132Z,72.10
2023-08-04T03:48:02.725Z,71.90
2023-08-04T03:50:29.311Z,72.00
2023-08-04T03:52:55.883Z,71.80
2023-08-04T03:55:22.507Z,71.60
2023-08-04T03:57:49.057Z,71.70
2023-08-04T04:00:15.605Z,71.60
2023-08-04T04:02:42.202Z,71.60
2023-08-04T04:05:08.752Z,71.60
2023-08-04T04:07:35.320Z,71.90
2023-08-04T04:10:01.856Z,71.80
2023-08-04T04:12:28.401Z,71.80
2023-08-04T04:14:57.581Z,71.80
2023-08-04T04:17:24.098Z,71.80
2023-08-04T04:19:51.589Z,72.00
2023-08-04T04:22:18.134Z,71.70
2023-08-04T04:24:44.632Z,71.70
2023-08-04T04:27:11.184Z,71.70
2023-08-04T04:29:37.720Z,71.80
2023-08-04T04:32:04.267Z,71.70
2023-08-04T04:34:30.765Z,71.60
2023-08-04T04:37:03.634Z,71.60
2023-08-04T04:39:30.175Z,71.60
2023-08-04T04:41:56.701Z,71.50
2023-08-04T04:44:23.216Z,71.60
2023-08-04T04:46:49.768Z,71.60
2023-08-04T04:49:16.280Z,71.40
2023-08-04T04:51:42.819Z,71.40
2023-08-04T04:54:09.597Z,71.70
2023-08-04T04:56:36.104Z,71.50
2023-08-04T04:59:03.623Z,71.60
2023-08-04T05:01:30.191Z,71.70
2023-08-04T05:03:56.750Z,71.70
2023-08-04T05:06:23.345Z,71.60
2023-08-04T05:08:49.856Z,71.30
2023-08-04T05:11:16.438Z,71.50
2023-08-04T05:13:45.623Z,71.30
2023-08-04T05:16:15.730Z,71.30
2023-08-04T05:18:42.276Z,71.30
2023-08-04T05:21:08.807Z,71.30
2023-08-04T05:23:35.317Z,71.30
2023-08-04T05:28:52.900Z,71.50
2023-08-04T05:31:19.453Z,71.50
2023-08-04T05:33:46.019Z,71.30
2023-08-04T05:36:15.680Z,71.20
2023-08-04T05:38:45.677Z,71.10
2023-08-04T05:41:12.191Z,71.00
2023-08-04T05:43:38.733Z,71.00
2023-08-04T05:46:05.247Z,71.20
2023-08-04T05:48:31.834Z,71.40
2023-08-04T05:50:58.406Z,71.40
2023-08-04T05:53:24.963Z,71.00
2023-08-04T05:55:51.475Z,70.90
2023-08-04T05:58:21.715Z,71.10
2023-08-04T06:00:48.238Z,71.30
2023-08-04T06:03:15.710Z,71.20
2023-08-04T06:05:42.215Z,71.30
2023-08-04T06:08:08.735Z,71.30
2023-08-04T06:10:35.268Z,71.20
2023-08-04T06:13:01.795Z,70.90
2023-08-04T06:15:33.780Z,71.30
2023-08-04T06:20:50.915Z,71.20
2023-08-04T06:23:21.749Z,71.20
2023-08-04T06:25:51.767Z,71.30
2023-08-04T06:28:21.734Z,71.10
2023-08-04T06:30:48.252Z,70.90
2023-08-04T06:33:14.816Z,71.80
2023-08-04T06:35:41.371Z,71.10
2023-08-04T06:38:07.886Z,71.10
2023-08-04T06:40:34.989Z,71.10
2023-08-04T06:43:01.533Z,71.20
2023-08-04T06:45:28.076Z,70.90
2023-08-04T06:47:54.668Z,70.90
2023-08-04T06:50:21.175Z,70.90
2023-08-04T06:52:51.757Z,71.00
2023-08-04T06:55:18.265Z,71.10
2023-08-04T06:57:44.792Z,71.20
2023-08-04T07:00:11.315Z,71.40
2023-08-04T07:02:37.951Z,71.30
2023-08-04T07:05:09.892Z,71.20
2023-08-04T07:07:36.402Z,71.10
2023-08-04T07:10:02.925Z,71.10
2023-08-04T07:12:33.757Z,71.10
2023-08-04T07:15:03.813Z,71.30
2023-08-04T07:17:30.359Z,71.40
2023-08-04T07:19:57.722Z,71.60
2023-08-04T07:22:27.756Z,71.60
2023-08-04T07:24:54.308Z,71.40
2023-08-04T07:27:21.786Z,71.30
2023-08-04T07:29:51.803Z,71.20
2023-08-04T07:32:18.336Z,71.40
2023-08-04T07:34:45.798Z,71.20
2023-08-04T07:37:15.804Z,71.10
2023-08-04T07:39:42.355Z,71.20
2023-08-04T07:42:08.890Z,71.40
2023-08-04T07:44:35.424Z,71.60
2023-08-04T07:47:01.924Z,71.60
2023-08-04T07:49:28.432Z,71.50
2023-08-04T07:51:54.935Z,71.40
2023-08-04T07:54:21.813Z,71.60
2023-08-04T07:56:48.369Z,71.70
2023-08-04T07:59:15.820Z,71.70
2023-08-04T08:01:46.085Z,71.60
2023-08-04T08:07:03.813Z,71.60
2023-08-04T08:09:30.344Z,71.70
2023-08-04T08:11:56.854Z,71.70
2023-08-04T08:14:23.365Z,71.60
2023-08-04T08:16:49.922Z,71.50
2023-08-04T08:22:06.703Z,71.60
2023-08-04T08:24:33.811Z,71.80
2023-08-04T08:27:03.843Z,71.80
2023-08-04T08:29:30.404Z,71.70
2023-08-04T08:31:56.967Z,71.60
2023-08-04T08:34:23.558Z,71.60
2023-08-04T08:36:51.832Z,71.90
2023-08-04T08:39:18.386Z,71.50
2023-08-04T08:41:44.966Z,71.50
2023-08-04T08:44:11.497Z,71.80
2023-08-04T08:46:38.046Z,71.60
2023-08-04T08:49:09.850Z,71.70
2023-08-04T08:51:36.382Z,71.70
2023-08-04T08:54:02.905Z,71.70
2023-08-04T08:56:29.455Z,71.70
2023-08-04T08:59:03.908Z,71.60
2023-08-04T09:01:30.472Z,71.50
2023-08-04T09:03:57.007Z,71.60
2023-08-04T09:06:23.516Z,72.40
2023-08-04T09:08:50.047Z,71.70
2023-08-04T09:11:16.567Z,71.70
2023-08-04T09:13:43.086Z,71.80
2023-08-04T09:16:09.651Z,71.70
2023-08-04T09:18:40.062Z,72.00
2023-08-04T09:21:06.573Z,71.50
2023-08-04T09:23:40.034Z,71.60
2023-08-04T09:26:06.556Z,71.20
2023-08-04T09:28:33.095Z,71.00
2023-08-04T09:30:59.648Z,71.10
2023-08-04T09:33:26.180Z,71.30
2023-08-04T09:35:52.683Z,71.50
2023-08-04T09:38:19.179Z,71.30
2023-08-04T09:40:45.697Z,71.40
2023-08-04T09:43:12.218Z,71.50
2023-08-04T09:45:40.037Z,71.60
2023-08-04T09:48:06.804Z,71.70
2023-08-04T09:50:33.879Z,71.60
2023-08-04T09:53:00.546Z,71.40
2023-08-04T09:55:27.076Z,71.50
2023-08-04T09:57:53.615Z,71.40
2023-08-04T10:00:20.126Z,71.50
2023-08-04T10:02:46.770Z,71.40
2023-08-04T10:05:13.317Z,71.50
2023-08-04T10:07:39.934Z,71.40
2023-08-04T10:10:07.697Z,71.50
2023-08-04T10:12:39.923Z,71.50
2023-08-04T10:15:06.479Z,71.50
2023-08-04T10:17:33.231Z,71.30
2023-08-04T10:20:04.010Z,71.40
2023-08-04T10:22:30.622Z,71.40
2023-08-04T10:24:57.198Z,71.20
2023-08-04T10:27:23.748Z,71.10
2023-08-04T10:29:50.249Z,71.10
2023-08-04T10:32:16.841Z,71.30
2023-08-04T10:34:43.405Z,70.90
2023-08-04T10:37:09.959Z,70.60
2023-08-04T10:39:36.531Z,70.80
2023-08-04T10:42:03.104Z,71.10
2023-08-04T10:44:29.622Z,70.90
2023-08-04T10:46:56.233Z,71.80
2023-08-04T10:49:22.795Z,70.90
2023-08-04T10:51:51.944Z,70.70
2023-08-04T10:54:18.469Z,70.70
2023-08-04T10:56:45.022Z,70.50
2023-08-04T10:59:11.594Z,70.50
2023-08-04T11:01:38.220Z,70.10
2023-08-04T11:04:04.786Z,70.10
2023-08-04T11:06:31.312Z,69.90
2023-08-04T11:08:57.874Z,69.80
2023-08-04T11:11:24.425Z,69.80
2023-08-04T11:13:50.999Z,69.60
2023-08-04T11:16:28.108Z,69.60
2023-08-04T11:18:54.664Z,69.60
2023-08-04T11:21:21.182Z,69.80
2023-08-04T11:23:47.719Z,69.40
2023-08-04T11:26:14.261Z,69.20
2023-08-04T11:28:40.829Z,69.10
2023-08-04T11:31:10.121Z,69.30
2023-08-04T11:33:36.710Z,69.30
2023-08-04T11:36:03.255Z,69.40
2023-08-04T11:38:34.012Z,69.40
2023-08-04T11:41:00.706Z,69.30
2023-08-04T11:43:27.343Z,69.20
2023-08-04T11:45:53.852Z,69.30
2023-08-04T11:48:20.452Z,69.30
2023-08-04T11:50:52.014Z,69.30
2023-08-04T11:53:18.563Z,69.50
2023-08-04T11:55:45.079Z,69.30
2023-08-04T11:58:11.614Z,69.00
2023-08-04T12:00:38.104Z,68.90
2023-08-04T12:03:04.838Z,68.90
2023-08-04T12:05:31.619Z,68.70
2023-08-04T12:07:58.326Z,68.50
2023-08-04T12:10:24.841Z,68.40
2023-08-04T12:12:51.369Z,68.40
2023-08-04T12:15:22.073Z,68.30
2023-08-04T12:17:48.724Z,68.40
2023-08-04T12:20:15.487Z,68.60
2023-08-04T12:22:42.072Z,68.60
2023-08-04T12:25:10.016Z,68.60
2023-08-04T12:27:36.571Z,68.70
2023-08-04T12:30:03.099Z,68.70
2023-08-04T12:32:29.752Z,68.50
2023-08-04T12:34:56.432Z,68.50
2023-08-04T12:43:10.048Z,68.70
2023-08-04T12:45:36.619Z,68.60
2023-08-04T12:48:04.055Z,68.50
2023-08-04T12:50:30.650Z,68.50
2023-08-04T12:52:57.206Z,68.40
2023-08-04T12:55:23.785Z,68.50
2023-08-04T12:57:50.307Z,68.50
2023-08-04T13:00:16.831Z,68.50
2023-08-04T13:02:43.481Z,68.50
2023-08-04T13:05:10.143Z,68.60
2023-08-04T13:07:36.687Z,68.60
2023-08-04T13:10:03.313Z,68.30
2023-08-04T13:12:29.835Z,68.30
2023-08-04T13:14:56.371Z,68.20
2023-08-04T13:17:22.927Z,69.20
2023-08-04T13:19:49.525Z,68.60
2023-08-04T13:22:16.052Z,68.40
2023-08-04T13:24:42.582Z,68.60
2023-08-04T13:27:09.114Z,68.30
2023-08-04T13:29:35.628Z,68.40
2023-08-04T13:32:02.265Z,68.40
2023-08-04T13:34:28.842Z,68.30
2023-08-04T13:36:55.368Z,68.30
2023-08-04T13:39:21.869Z,68.50
2023-08-04T13:41:48.567Z,68.50
2023-08-04T13:44:15.298Z,68.30
2023-08-04T13:46:46.165Z,68.10
2023-08-04T13:49:12.701Z,68.30
2023-08-04T13:51:39.213Z,68.30
2023-08-04T13:54:05.728Z,68.30
2023-08-04T13:56:32.262Z,68.10
2023-08-04T13:58:58.845Z,68.10
2023-08-04T14:01:25.493Z,68.00
2023-08-04T14:03:52.184Z,67.90
2023-08-04T14:06:18.764Z,68.00
2023-08-04T14:08:45.309Z,68.00
2023-08-04T14:11:11.925Z,68.10
2023-08-04T14:13:38.622Z,67.90
2023-08-04T14:16:05.196Z,67.90
2023-08-04T14:18:32.265Z,67.70
2023-08-04T14:21:04.189Z,67.70
2023-08-04T14:23:34.137Z,67.70
2023-08-04T14:26:04.219Z,67.70
2023-08-04T14:28:30.823Z,67.80
2023-08-04T14:30:57.417Z,67.70
2023-08-04T14:33:23.964Z,68.00
2023-08-04T14:35:50.529Z,67.80
2023-08-04T14:38:17.113Z,67.90
2023-08-04T14:40:43.721Z,67.80
2023-08-04T14:43:10.260Z,67.70
2023-08-04T14:45:37.978Z,67.50
2023-08-04T14:48:04.973Z,67.40
2023-08-04T14:50:31.554Z,67.50
2023-08-04T14:52:58.148Z,67.50
2023-08-04T14:55:28.164Z,67.50
2023-08-04T14:57:54.696Z,67.40
2023-08-04T15:00:21.237Z,67.40
2023-08-04T15:02:52.260Z,67.20
2023-08-04T15:05:18.834Z,67.40
2023-08-04T15:07:45.501Z,67.50
2023-08-04T15:10:12.259Z,67.30
2023-08-04T15:12:39.033Z,67.40
2023-08-04T15:15:05.587Z,67.30
2023-08-04T15:17:32.321Z,67.20
2023-08-04T15:20:04.307Z,67.30
2023-08-04T15:22:30.869Z,67.30
2023-08-04T15:24:57.395Z,67.30
2023-08-04T15:27:28.390Z,67.40
2023-08-04T15:29:54.893Z,67.20
2023-08-04T15:32:21.498Z,67.20
2023-08-04T15:34:52.337Z,67.20
2023-08-04T15:37:22.212Z,67.10
2023-08-04T15:39:48.771Z,67.20
2023-08-04T15:42:15.335Z,67.20
2023-08-04T15:44:41.863Z,67.40
2023-08-04T15:47:10.405Z,67.20
2023-08-04T15:49:40.357Z,67.20
2023-08-04T15:52:06.895Z,67.20
2023-08-04T15:54:33.423Z,67.20
2023-08-04T15:57:00.337Z,67.20
2023-08-04T15:59:28.204Z,67.10
2023-08-04T16:01:54.754Z,67.20
2023-08-04T16:04:21.361Z,67.30
2023-08-04T16:06:48.187Z,67.40
2023-08-04T16:09:14.855Z,67.20
2023-08-04T16:11:41.374Z,67.30
2023-08-04T16:14:07.905Z,67.30
2023-08-04T16:16:34.488Z,67.20
2023-08-04T16:19:04.225Z,67.20
2023-08-04T16:21:30.738Z,67.20
2023-08-04T16:23:58.198Z,67.30
2023-08-04T16:26:28.255Z,67.60
2023-08-04T16:28:58.227Z,67.20
2023-08-04T16:31:24.752Z,67.20
2023-08-04T16:33:53.702Z,67.40
2023-08-04T16:36:20.611Z,67.40
2023-08-04T16:38:47.115Z,67.40
2023-08-04T16:41:13.636Z,67.30
2023-08-04T16:43:40.135Z,67.30
2023-08-04T16:46:06.671Z,67.20
2023-08-04T16:48:33.193Z,67.20
2023-08-04T16:50:59.721Z,67.20
2023-08-04T16:53:26.259Z,67.30
2023-08-04T16:55:52.792Z,67.40
2023-08-04T16:58:19.347Z,67.30
2023-08-04T17:00:45.887Z,67.20
2023-08-04T17:03:16.279Z,67.60
2023-08-04T17:05:42.809Z,67.30
2023-08-04T17:08:09.358Z,67.30
2023-08-04T17:10:35.885Z,67.30
2023-08-04T17:13:02.434Z,67.30
2023-08-04T17:15:36.523Z,67.30
2023-08-04T17:20:54.924Z,67.40
2023-08-04T17:23:22.292Z,67.60
2023-08-04T17:25:48.801Z,67.30
2023-08-04T17:28:15.326Z,67.40
2023-08-04T17:30:41.841Z,67.60
2023-08-04T17:33:08.456Z,67.70
2023-08-04T17:35:34.984Z,67.40
2023-08-04T17:38:01.535Z,67.70
2023-08-04T17:40:28.113Z,67.60
2023-08-04T17:42:58.298Z,67.60
2023-08-04T17:45:24.865Z,67.80
2023-08-04T17:47:51.476Z,67.60
2023-08-04T17:50:18.057Z,67.70
2023-08-04T17:52:44.644Z,67.50
2023-08-04T17:55:11.155Z,67.60
2023-08-04T18:00:28.331Z,67.60
2023-08-04T18:02:58.399Z,67.50
2023-08-04T18:05:25.006Z,67.50
2023-08-04T18:07:52.326Z,67.60
2023-08-04T18:10:22.377Z,67.60
2023-08-04T18:12:52.321Z,67.70
2023-08-04T18:15:18.824Z,67.70
2023-08-04T18:17:45.410Z,67.70
2023-08-04T18:20:11.954Z,67.80
2023-08-04T18:22:38.469Z,67.80
2023-08-04T18:25:05.019Z,67.70
2023-08-04T18:27:31.544Z,67.70
2023-08-04T18:29:58.088Z,67.90
2023-08-04T18:32:24.611Z,67.90
2023-08-04T18:34:51.150Z,67.70
2023-08-04T18:37:17.673Z,67.80
2023-08-04T18:39:45.300Z,67.70
2023-08-04T18:42:11.823Z,67.70
2023-08-04T18:44:40.353Z,67.70
2023-08-04T18:47:06.871Z,67.70
2023-08-04T18:49:34.355Z,67.70
2023-08-04T18:52:00.877Z,67.80
2023-08-04T18:54:27.397Z,67.80
2023-08-04T18:56:53.944Z,67.80
2023-08-04T18:59:20.495Z,67.90
2023-08-04T19:01:47.014Z,67.90
2023-08-04T19:04:13.511Z,68.10
2023-08-04T19:06:40.023Z,68.00
2023-08-04T19:09:06.524Z,68.10
2023-08-04T19:11:33.029Z,68.10
2023-08-04T19:13:59.545Z,68.10
2023-08-04T19:16:34.631Z,68.10
2023-08-04T19:19:01.200Z,68.20
2023-08-04T19:21:28.398Z,68.30
2023-08-04T19:23:54.907Z,68.20
2023-08-04T19:26:21.456Z,68.20
2023-08-04T19:28:47.964Z,68.20
2023-08-04T19:31:14.505Z,68.20
2023-08-04T19:33:41.024Z,68.20
2023-08-04T19:36:07.590Z,68.20
2023-08-04T19:38:34.145Z,68.30
2023-08-04T19:41:04.407Z,68.50
2023-08-04T19:43:30.921Z,68.30
2023-08-04T19:45:58.464Z,68.30
2023-08-04T19:48:25.006Z,68.30
2023-08-04T19:50:51.517Z,68.40
2023-08-04T19:53:18.123Z,68.40
2023-08-04T19:58:12.926Z,68.70
2023-08-04T20:00:39.440Z,68.50
2023-08-04T20:03:06.009Z,68.20
2023-08-04T20:05:34.440Z,68.30
2023-08-04T20:08:00.937Z,68.40
2023-08-04T20:10:27.464Z,68.30
2023-08-04T20:12:53.987Z,68.30
2023-08-04T20:15:20.531Z,69.10
2023-08-04T20:17:47.118Z,68.50
2023-08-04T20:20:13.682Z,68.50
2023-08-04T20:22:40.408Z,68.50
2023-08-04T20:27:58.195Z,68.60
2023-08-04T20:30:24.735Z,68.70
2023-08-04T20:32:51.300Z,68.80
2023-08-04T20:35:17.881Z,68.70
2023-08-04T20:37:44.427Z,68.80
2023-08-04T20:43:01.914Z,68.70
2023-08-04T20:45:28.426Z,68.60
2023-08-04T20:47:54.976Z,68.90
2023-08-04T20:50:21.512Z,69.10
2023-08-04T20:52:48.025Z,68.90
2023-08-04T20:55:16.464Z,68.90
2023-08-04T20:57:42.996Z,68.80
2023-08-04T21:00:10.481Z,68.90
2023-08-04T21:02:40.554Z,68.90
2023-08-04T21:05:07.182Z,68.90
2023-08-04T21:07:33.730Z,68.70
2023-08-04T21:10:04.621Z,68.70
2023-08-04T21:12:31.136Z,68.70
2023-08-04T21:14:57.643Z,68.90
2023-08-04T21:17:24.162Z,68.80
2023-08-04T21:19:50.674Z,68.80
2023-08-04T21:22:17.215Z,69.80
2023-08-04T21:24:43.735Z,68.80
2023-08-04T21:27:10.504Z,68.80
2023-08-04T21:29:37.001Z,68.80
2023-08-04T21:32:03.542Z,68.80
2023-08-04T21:34:34.616Z,68.90
2023-08-04T21:37:01.184Z,68.90
2023-08-04T21:39:34.607Z,69.00
2023-08-04T21:42:01.150Z,69.00
2023-08-04T21:44:27.654Z,69.10
2023-08-04T21:46:58.546Z,68.90
2023-08-04T21:49:28.631Z,69.00
2023-08-04T21:51:58.510Z,69.00
2023-08-04T21:54:25.033Z,69.00
2023-08-04T21:56:51.980Z,68.90
2023-08-04T21:59:18.682Z,69.00
2023-08-04T22:04:35.984Z,69.00
2023-08-04T22:07:04.524Z,69.20
2023-08-04T22:09:31.214Z,69.40
2023-08-04T22:14:47.814Z,69.10
2023-08-04T22:17:14.406Z,69.20
2023-08-04T22:19:40.965Z,69.00
2023-08-04T22:22:10.546Z,69.20
2023-08-04T22:24:37.097Z,69.20
2023-08-04T22:27:03.623Z,69.30
2023-08-04T22:29:30.176Z,69.50
2023-08-04T22:31:56.704Z,69.40
2023-08-04T22:34:28.568Z,69.70
2023-08-04T22:36:58.753Z,69.60
2023-08-04T22:39:25.324Z,69.50
2023-08-04T22:41:51.847Z,69.60
2023-08-04T22:44:18.368Z,69.40
2023-08-04T22:46:46.612Z,69.60
2023-08-04T22:49:13.186Z,69.60
2023-08-04T22:51:39.696Z,69.60
2023-08-04T22:54:08.808Z,69.60
2023-08-04T22:56:37.430Z,69.70
2023-08-04T22:59:04.577Z,69.70
2023-08-04T23:01:34.680Z,69.70
2023-08-04T23:04:01.228Z,69.70
2023-08-04T23:06:28.549Z,69.70
2023-08-04T23:08:58.582Z,69.70
2023-08-04T23:11:25.181Z,69.70
2023-08-04T23:13:51.728Z,69.80
2023-08-04T23:16:22.640Z,69.70
2023-08-04T23:18:52.588Z,69.80
2023-08-04T23:21:22.588Z,69.70
2023-08-04T23:23:49.128Z,69.70
2023-08-04T23:26:15.652Z,69.80
2023-08-04T23:28:42.173Z,69.90
2023-08-04T23:31:08.759Z,70.00
2023-08-04T23:33:35.340Z,70.00
2023-08-04T23:36:01.866Z,69.80
2023-08-04T23:38:28.505Z,69.90
2023-08-04T23:40:55.044Z,70.00
2023-08-04T23:43:22.607Z,69.90
2023-08-04T23:45:49.153Z,70.00
2023-08-04T23:48:15.703Z,69.80
2023-08-04T23:50:42.241Z,70.00
2023-08-04T23:53:08.779Z,69.90
2023-08-04T23:55:35.305Z,70.00
2023-08-04T23:58:01.877Z,70.00
